sensor_id;sensor_type;location;lat;lon;timestamp;temperature;humidity
21149;DHT22;10732;51.472;6.466;2023-03-23T00:01:47;12.20;99.90
21149;DHT22;10732;51.472;6.466;2023-03-23T00:04:15;12.30;99.90
21149;DHT22;10732;51.472;6.466;2023-03-23T00:06:41;12.30;99.90
21149;DHT22;10732;51.472;6.466;2023-03-23T00:09:09;12.30;99.90
21149;DHT22;10732;51.472;6.466;2023-03-23T00:11:35;12.30;99.90
21149;DHT22;10732;51.472;6.466;2023-03-23T00:14:00;12.30;99.90
21149;DHT22;10732;51.472;6.466;2023-03-23T00:16:29;12.30;99.90
21149;DHT22;10732;51.472;6.466;2023-03-23T00:19:07;12.20;99.90
21149;DHT22;10732;51.472;6.466;2023-03-23T00:21:36;12.20;99.90
21149;DHT22;10732;51.472;6.466;2023-03-23T00:24:07;12.20;99.90
21149;DHT22;10732;51.472;6.466;2023-03-23T00:26:35;12.30;99.90
21149;DHT22;10732;51.472;6.466;2023-03-23T00:29:03;12.20;99.90
21149;DHT22;10732;51.472;6.466;2023-03-23T00:31:29;12.20;99.90
21149;DHT22;10732;51.472;6.466;2023-03-23T00:33:58;12.20;99.90
21149;DHT22;10732;51.472;6.466;2023-03-23T00:36:26;12.20;99.90
21149;DHT22;10732;51.472;6.466;2023-03-23T00:38:52;12.20;99.90
21149;DHT22;10732;51.472;6.466;2023-03-23T00:41:17;12.20;99.90
21149;DHT22;10732;51.472;6.466;2023-03-23T00:43:43;12.30;99.90
21149;DHT22;10732;51.472;6.466;2023-03-23T00:46:08;12.20;99.90
21149;DHT22;10732;51.472;6.466;2023-03-23T00:48:36;12.20;99.90
21149;DHT22;10732;51.472;6.466;2023-03-23T00:51:06;12.20;99.90
21149;DHT22;10732;51.472;6.466;2023-03-23T00:53:41;12.30;99.90
21149;DHT22;10732;51.472;6.466;2023-03-23T00:56:08;12.30;99.90
21149;DHT22;10732;51.472;6.466;2023-03-23T00:58:34;12.30;99.90
21149;DHT22;10732;51.472;6.466;2023-03-23T01:01:00;12.30;99.90
21149;DHT22;10732;51.472;6.466;2023-03-23T01:03:26;12.20;99.90
21149;DHT22;10732;51.472;6.466;2023-03-23T01:05:54;12.30;99.90
21149;DHT22;10732;51.472;6.466;2023-03-23T01:08:20;12.20;99.90
21149;DHT22;10732;51.472;6.466;2023-03-23T01:10:47;12.30;99.90
21149;DHT22;10732;51.472;6.466;2023-03-23T01:13:13;12.30;99.90
21149;DHT22;10732;51.472;6.466;2023-03-23T01:15:43;12.30;99.90
21149;DHT22;10732;51.472;6.466;2023-03-23T01:18:09;12.40;99.90
21149;DHT22;10732;51.472;6.466;2023-03-23T01:20:36;12.30;99.90
21149;DHT22;10732;51.472;6.466;2023-03-23T01:23:02;12.30;99.90
21149;DHT22;10732;51.472;6.466;2023-03-23T01:25:30;12.30;99.90
21149;DHT22;10732;51.472;6.466;2023-03-23T01:27:57;12.30;99.90
21149;DHT22;10732;51.472;6.466;2023-03-23T01:30:23;12.30;99.90
21149;DHT22;10732;51.472;6.466;2023-03-23T01:32:49;12.40;99.90
21149;DHT22;10732;51.472;6.466;2023-03-23T01:35:16;12.30;99.90
21149;DHT22;10732;51.472;6.466;2023-03-23T01:37:42;12.30;99.90
21149;DHT22;10732;51.472;6.466;2023-03-23T01:40:08;12.30;99.90
21149;DHT22;10732;51.472;6.466;2023-03-23T01:42:36;12.30;99.90
21149;DHT22;10732;51.472;6.466;2023-03-23T01:48:09;12.30;99.90
21149;DHT22;10732;51.472;6.466;2023-03-23T01:50:41;12.30;99.90
21149;DHT22;10732;51.472;6.466;2023-03-23T01:53:10;12.30;99.90
21149;DHT22;10732;51.472;6.466;2023-03-23T01:55:38;12.30;99.90
21149;DHT22;10732;51.472;6.466;2023-03-23T01:58:06;12.20;99.90
21149;DHT22;10732;51.472;6.466;2023-03-23T02:00:33;12.30;99.90
21149;DHT22;10732;51.472;6.466;2023-03-23T02:03:00;12.20;99.90
21149;DHT22;10732;51.472;6.466;2023-03-23T02:05:32;12.30;99.90
21149;DHT22;10732;51.472;6.466;2023-03-23T02:08:01;12.20;99.90
21149;DHT22;10732;51.472;6.466;2023-03-23T02:10:29;12.30;99.90
21149;DHT22;10732;51.472;6.466;2023-03-23T02:12:56;12.20;99.90
21149;DHT22;10732;51.472;6.466;2023-03-23T02:15:22;12.20;99.90
21149;DHT22;10732;51.472;6.466;2023-03-23T02:23:38;12.20;99.90
21149;DHT22;10732;51.472;6.466;2023-03-23T02:34:16;12.20;99.90
21149;DHT22;10732;51.472;6.466;2023-03-23T02:39:26;12.20;99.90
21149;DHT22;10732;51.472;6.466;2023-03-23T02:42:02;12.10;99.90
21149;DHT22;10732;51.472;6.466;2023-03-23T02:44:31;12.10;99.90
21149;DHT22;10732;51.472;6.466;2023-03-23T02:47:00;12.10;99.90
21149;DHT22;10732;51.472;6.466;2023-03-23T02:49:28;12.10;99.90
21149;DHT22;10732;51.472;6.466;2023-03-23T02:51:56;12.10;99.90
21149;DHT22;10732;51.472;6.466;2023-03-23T02:54:24;12.10;99.90
21149;DHT22;10732;51.472;6.466;2023-03-23T02:56:52;12.10;99.90
21149;DHT22;10732;51.472;6.466;2023-03-23T02:59:18;12.00;99.90
21149;DHT22;10732;51.472;6.466;2023-03-23T03:04:15;12.00;99.90
21149;DHT22;10732;51.472;6.466;2023-03-23T03:06:58;12.00;99.90
21149;DHT22;10732;51.472;6.466;2023-03-23T03:10:04;12.00;99.90
21149;DHT22;10732;51.472;6.466;2023-03-23T03:12:43;12.00;99.90
21149;DHT22;10732;51.472;6.466;2023-03-23T03:15:21;12.10;99.90
21149;DHT22;10732;51.472;6.466;2023-03-23T03:17:56;12.10;99.90
21149;DHT22;10732;51.472;6.466;2023-03-23T03:20:24;12.00;99.90
21149;DHT22;10732;51.472;6.466;2023-03-23T03:22:51;12.10;99.90
21149;DHT22;10732;51.472;6.466;2023-03-23T03:25:19;12.10;99.90
21149;DHT22;10732;51.472;6.466;2023-03-23T03:27:47;12.00;99.90
21149;DHT22;10732;51.472;6.466;2023-03-23T03:30:17;12.00;99.90
21149;DHT22;10732;51.472;6.466;2023-03-23T03:32:47;12.10;99.90
21149;DHT22;10732;51.472;6.466;2023-03-23T03:35:14;12.00;99.90
21149;DHT22;10732;51.472;6.466;2023-03-23T03:37:41;12.00;99.90
21149;DHT22;10732;51.472;6.466;2023-03-23T03:40:13;12.00;99.90
21149;DHT22;10732;51.472;6.466;2023-03-23T03:42:40;12.10;99.90
21149;DHT22;10732;51.472;6.466;2023-03-23T03:45:08;12.10;99.90
21149;DHT22;10732;51.472;6.466;2023-03-23T03:47:34;12.10;99.90
21149;DHT22;10732;51.472;6.466;2023-03-23T03:49:59;12.10;99.90
21149;DHT22;10732;51.472;6.466;2023-03-23T03:52:25;12.10;99.90
21149;DHT22;10732;51.472;6.466;2023-03-23T03:54:52;12.10;99.90
21149;DHT22;10732;51.472;6.466;2023-03-23T03:57:18;12.10;99.90
21149;DHT22;10732;51.472;6.466;2023-03-23T03:59:45;12.10;99.90
21149;DHT22;10732;51.472;6.466;2023-03-23T04:02:10;12.10;99.90
21149;DHT22;10732;51.472;6.466;2023-03-23T04:04:39;12.10;99.90
21149;DHT22;10732;51.472;6.466;2023-03-23T04:07:05;12.20;99.90
21149;DHT22;10732;51.472;6.466;2023-03-23T04:09:30;12.20;99.90
21149;DHT22;10732;51.472;6.466;2023-03-23T04:11:57;12.20;99.90
21149;DHT22;10732;51.472;6.466;2023-03-23T04:14:22;12.20;99.90
21149;DHT22;10732;51.472;6.466;2023-03-23T04:16:49;12.20;99.90
21149;DHT22;10732;51.472;6.466;2023-03-23T04:19:17;12.20;99.90
21149;DHT22;10732;51.472;6.466;2023-03-23T04:21:44;12.10;99.90
21149;DHT22;10732;51.472;6.466;2023-03-23T04:24:14;12.10;99.90
21149;DHT22;10732;51.472;6.466;2023-03-23T04:26:40;12.10;99.90
21149;DHT22;10732;51.472;6.466;2023-03-23T04:29:10;12.10;99.90
21149;DHT22;10732;51.472;6.466;2023-03-23T04:31:37;12.20;99.90
21149;DHT22;10732;51.472;6.466;2023-03-23T04:34:04;12.20;99.90
21149;DHT22;10732;51.472;6.466;2023-03-23T04:36:30;12.20;99.90
21149;DHT22;10732;51.472;6.466;2023-03-23T04:38:55;12.20;99.90
21149;DHT22;10732;51.472;6.466;2023-03-23T04:41:22;12.20;99.90
21149;DHT22;10732;51.472;6.466;2023-03-23T04:43:48;12.10;99.90
21149;DHT22;10732;51.472;6.466;2023-03-23T04:46:25;12.20;99.90
21149;DHT22;10732;51.472;6.466;2023-03-23T04:48:54;12.20;99.90
21149;DHT22;10732;51.472;6.466;2023-03-23T04:51:20;12.10;99.90
21149;DHT22;10732;51.472;6.466;2023-03-23T04:53:45;12.00;99.90
21149;DHT22;10732;51.472;6.466;2023-03-23T04:56:11;12.10;99.90
21149;DHT22;10732;51.472;6.466;2023-03-23T04:58:39;12.10;99.90
21149;DHT22;10732;51.472;6.466;2023-03-23T05:01:06;12.10;99.90
21149;DHT22;10732;51.472;6.466;2023-03-23T05:03:31;12.10;99.90
21149;DHT22;10732;51.472;6.466;2023-03-23T05:05:57;12.10;99.90
21149;DHT22;10732;51.472;6.466;2023-03-23T05:08:26;12.10;99.90
21149;DHT22;10732;51.472;6.466;2023-03-23T05:10:53;12.20;99.90
21149;DHT22;10732;51.472;6.466;2023-03-23T05:13:19;12.10;99.90
21149;DHT22;10732;51.472;6.466;2023-03-23T05:15:45;12.10;99.90
21149;DHT22;10732;51.472;6.466;2023-03-23T05:18:11;12.10;99.90
21149;DHT22;10732;51.472;6.466;2023-03-23T05:20:37;12.10;99.90
21149;DHT22;10732;51.472;6.466;2023-03-23T05:23:02;12.10;99.90
21149;DHT22;10732;51.472;6.466;2023-03-23T05:25:28;12.20;99.90
21149;DHT22;10732;51.472;6.466;2023-03-23T05:27:53;12.20;99.90
21149;DHT22;10732;51.472;6.466;2023-03-23T05:30:20;12.10;99.90
21149;DHT22;10732;51.472;6.466;2023-03-23T05:32:46;12.10;99.90
21149;DHT22;10732;51.472;6.466;2023-03-23T05:35:16;12.10;99.90
21149;DHT22;10732;51.472;6.466;2023-03-23T05:37:42;12.10;99.90
21149;DHT22;10732;51.472;6.466;2023-03-23T05:40:09;12.10;99.90
21149;DHT22;10732;51.472;6.466;2023-03-23T05:42:35;12.10;99.90
21149;DHT22;10732;51.472;6.466;2023-03-23T05:45:02;12.10;99.90
21149;DHT22;10732;51.472;6.466;2023-03-23T05:47:28;12.10;99.90
21149;DHT22;10732;51.472;6.466;2023-03-23T05:49:54;12.20;99.90
21149;DHT22;10732;51.472;6.466;2023-03-23T05:52:19;12.20;99.90
21149;DHT22;10732;51.472;6.466;2023-03-23T05:54:46;12.20;99.90
21149;DHT22;10732;51.472;6.466;2023-03-23T05:57:11;12.20;99.90
21149;DHT22;10732;51.472;6.466;2023-03-23T05:59:37;12.20;99.90
21149;DHT22;10732;51.472;6.466;2023-03-23T06:02:03;12.20;99.90
21149;DHT22;10732;51.472;6.466;2023-03-23T06:04:29;12.20;99.90
21149;DHT22;10732;51.472;6.466;2023-03-23T06:06:55;12.20;99.90
21149;DHT22;10732;51.472;6.466;2023-03-23T06:09:22;12.10;99.90
21149;DHT22;10732;51.472;6.466;2023-03-23T06:11:48;12.10;99.90
21149;DHT22;10732;51.472;6.466;2023-03-23T06:14:14;12.20;99.90
21149;DHT22;10732;51.472;6.466;2023-03-23T06:16:39;12.20;99.90
21149;DHT22;10732;51.472;6.466;2023-03-23T06:19:05;12.20;99.90
21149;DHT22;10732;51.472;6.466;2023-03-23T06:21:31;12.30;99.90
21149;DHT22;10732;51.472;6.466;2023-03-23T06:23:58;12.40;99.90
21149;DHT22;10732;51.472;6.466;2023-03-23T06:26:28;12.40;99.90
21149;DHT22;10732;51.472;6.466;2023-03-23T06:28:55;12.40;99.90
21149;DHT22;10732;51.472;6.466;2023-03-23T06:31:21;12.40;99.90
21149;DHT22;10732;51.472;6.466;2023-03-23T06:33:46;12.40;99.90
21149;DHT22;10732;51.472;6.466;2023-03-23T06:36:12;12.40;99.90
21149;DHT22;10732;51.472;6.466;2023-03-23T06:38:38;12.50;99.90
21149;DHT22;10732;51.472;6.466;2023-03-23T06:41:04;12.50;99.90
21149;DHT22;10732;51.472;6.466;2023-03-23T06:43:30;12.50;99.90
21149;DHT22;10732;51.472;6.466;2023-03-23T06:45:59;12.50;99.90
21149;DHT22;10732;51.472;6.466;2023-03-23T06:48:26;12.50;99.90
21149;DHT22;10732;51.472;6.466;2023-03-23T06:50:52;12.60;99.90
21149;DHT22;10732;51.472;6.466;2023-03-23T06:53:18;12.60;99.90
21149;DHT22;10732;51.472;6.466;2023-03-23T06:55:45;12.60;99.90
21149;DHT22;10732;51.472;6.466;2023-03-23T06:58:11;12.60;99.90
21149;DHT22;10732;51.472;6.466;2023-03-23T07:00:36;12.60;99.90
21149;DHT22;10732;51.472;6.466;2023-03-23T07:03:02;12.60;99.90
21149;DHT22;10732;51.472;6.466;2023-03-23T07:05:28;12.60;99.90
21149;DHT22;10732;51.472;6.466;2023-03-23T07:07:54;12.60;99.90
21149;DHT22;10732;51.472;6.466;2023-03-23T07:10:20;12.60;99.90
21149;DHT22;10732;51.472;6.466;2023-03-23T07:12:46;12.60;99.90
21149;DHT22;10732;51.472;6.466;2023-03-23T07:15:12;12.60;99.90
21149;DHT22;10732;51.472;6.466;2023-03-23T07:17:38;12.60;99.90
21149;DHT22;10732;51.472;6.466;2023-03-23T07:20:05;12.70;99.90
21149;DHT22;10732;51.472;6.466;2023-03-23T07:22:31;12.70;99.90
21149;DHT22;10732;51.472;6.466;2023-03-23T07:24:57;12.70;99.90
21149;DHT22;10732;51.472;6.466;2023-03-23T07:27:23;12.70;99.90
21149;DHT22;10732;51.472;6.466;2023-03-23T07:29:48;12.70;99.90
21149;DHT22;10732;51.472;6.466;2023-03-23T07:32:14;12.80;99.90
21149;DHT22;10732;51.472;6.466;2023-03-23T07:34:39;12.80;99.90
21149;DHT22;10732;51.472;6.466;2023-03-23T07:37:05;12.80;99.90
21149;DHT22;10732;51.472;6.466;2023-03-23T07:39:31;12.80;99.90
21149;DHT22;10732;51.472;6.466;2023-03-23T07:41:58;12.80;99.90
21149;DHT22;10732;51.472;6.466;2023-03-23T07:44:24;12.80;99.90
21149;DHT22;10732;51.472;6.466;2023-03-23T07:46:49;12.80;99.90
21149;DHT22;10732;51.472;6.466;2023-03-23T07:49:16;12.80;99.90
21149;DHT22;10732;51.472;6.466;2023-03-23T07:51:42;12.80;99.90
21149;DHT22;10732;51.472;6.466;2023-03-23T07:54:08;12.70;99.90
21149;DHT22;10732;51.472;6.466;2023-03-23T07:56:35;12.70;99.90
21149;DHT22;10732;51.472;6.466;2023-03-23T07:59:01;12.70;99.90
21149;DHT22;10732;51.472;6.466;2023-03-23T08:01:28;12.70;99.90
21149;DHT22;10732;51.472;6.466;2023-03-23T08:03:54;12.70;99.90
21149;DHT22;10732;51.472;6.466;2023-03-23T08:06:22;12.80;99.90
21149;DHT22;10732;51.472;6.466;2023-03-23T08:08:48;12.80;99.90
21149;DHT22;10732;51.472;6.466;2023-03-23T08:11:15;12.80;99.90
21149;DHT22;10732;51.472;6.466;2023-03-23T08:13:44;12.70;99.90
21149;DHT22;10732;51.472;6.466;2023-03-23T08:16:10;12.70;99.90
21149;DHT22;10732;51.472;6.466;2023-03-23T08:18:36;12.80;99.90
21149;DHT22;10732;51.472;6.466;2023-03-23T08:21:03;12.80;99.90
21149;DHT22;10732;51.472;6.466;2023-03-23T08:23:35;12.90;99.90
21149;DHT22;10732;51.472;6.466;2023-03-23T08:26:05;13.00;99.90
21149;DHT22;10732;51.472;6.466;2023-03-23T08:28:32;13.10;99.90
21149;DHT22;10732;51.472;6.466;2023-03-23T08:30:58;13.10;99.90
21149;DHT22;10732;51.472;6.466;2023-03-23T08:33:23;13.20;99.90
21149;DHT22;10732;51.472;6.466;2023-03-23T08:35:59;13.30;99.90
21149;DHT22;10732;51.472;6.466;2023-03-23T08:38:26;13.20;99.90
21149;DHT22;10732;51.472;6.466;2023-03-23T08:41:00;13.20;99.90
21149;DHT22;10732;51.472;6.466;2023-03-23T08:43:26;13.10;99.90
21149;DHT22;10732;51.472;6.466;2023-03-23T08:45:53;13.20;99.90
21149;DHT22;10732;51.472;6.466;2023-03-23T08:48:19;13.20;99.90
21149;DHT22;10732;51.472;6.466;2023-03-23T08:50:45;13.10;99.90
21149;DHT22;10732;51.472;6.466;2023-03-23T08:53:10;13.00;99.90
21149;DHT22;10732;51.472;6.466;2023-03-23T08:55:36;12.90;99.90
21149;DHT22;10732;51.472;6.466;2023-03-23T08:58:02;12.80;99.90
21149;DHT22;10732;51.472;6.466;2023-03-23T09:00:29;12.80;99.90
21149;DHT22;10732;51.472;6.466;2023-03-23T09:02:54;12.80;99.90
21149;DHT22;10732;51.472;6.466;2023-03-23T09:05:23;11.90;99.90
21149;DHT22;10732;51.472;6.466;2023-03-23T09:07:53;11.10;99.90
21149;DHT22;10732;51.472;6.466;2023-03-23T09:10:20;10.60;99.90
21149;DHT22;10732;51.472;6.466;2023-03-23T09:12:46;10.50;99.90
21149;DHT22;10732;51.472;6.466;2023-03-23T09:15:15;10.40;99.90
21149;DHT22;10732;51.472;6.466;2023-03-23T09:17:44;10.40;99.90
21149;DHT22;10732;51.472;6.466;2023-03-23T09:20:12;10.60;99.90
21149;DHT22;10732;51.472;6.466;2023-03-23T09:22:44;10.70;99.90
21149;DHT22;10732;51.472;6.466;2023-03-23T09:25:12;10.80;99.90
21149;DHT22;10732;51.472;6.466;2023-03-23T09:27:39;11.00;99.90
21149;DHT22;10732;51.472;6.466;2023-03-23T09:30:10;11.10;99.90
21149;DHT22;10732;51.472;6.466;2023-03-23T09:32:38;11.30;99.90
21149;DHT22;10732;51.472;6.466;2023-03-23T09:35:06;11.30;99.90
21149;DHT22;10732;51.472;6.466;2023-03-23T09:37:40;11.40;99.90
21149;DHT22;10732;51.472;6.466;2023-03-23T09:40:11;11.50;99.90
21149;DHT22;10732;51.472;6.466;2023-03-23T09:45:45;11.30;99.90
21149;DHT22;10732;51.472;6.466;2023-03-23T09:48:38;11.30;99.90
21149;DHT22;10732;51.472;6.466;2023-03-23T09:54:34;11.50;99.90
21149;DHT22;10732;51.472;6.466;2023-03-23T09:57:02;11.40;99.90
21149;DHT22;10732;51.472;6.466;2023-03-23T09:59:42;11.20;99.90
21149;DHT22;10732;51.472;6.466;2023-03-23T10:02:19;11.20;99.90
21149;DHT22;10732;51.472;6.466;2023-03-23T10:05:12;11.20;99.90
21149;DHT22;10732;51.472;6.466;2023-03-23T10:07:40;11.20;99.90
21149;DHT22;10732;51.472;6.466;2023-03-23T10:10:13;11.20;99.90
21149;DHT22;10732;51.472;6.466;2023-03-23T10:15:28;11.70;99.90
21149;DHT22;10732;51.472;6.466;2023-03-23T10:18:19;11.60;99.90
21149;DHT22;10732;51.472;6.466;2023-03-23T10:20:58;11.50;99.90
21149;DHT22;10732;51.472;6.466;2023-03-23T10:23:53;11.60;99.90
21149;DHT22;10732;51.472;6.466;2023-03-23T10:28:55;11.70;99.90
21149;DHT22;10732;51.472;6.466;2023-03-23T10:31:27;11.70;99.90
21149;DHT22;10732;51.472;6.466;2023-03-23T10:33:57;11.80;99.90
21149;DHT22;10732;51.472;6.466;2023-03-23T10:36:35;12.00;99.90
21149;DHT22;10732;51.472;6.466;2023-03-23T10:39:10;11.80;99.90
21149;DHT22;10732;51.472;6.466;2023-03-23T10:41:37;12.60;99.90
21149;DHT22;10732;51.472;6.466;2023-03-23T10:44:15;13.40;99.90
21149;DHT22;10732;51.472;6.466;2023-03-23T10:46:49;13.70;99.90
21149;DHT22;10732;51.472;6.466;2023-03-23T10:49:28;14.10;99.90
21149;DHT22;10732;51.472;6.466;2023-03-23T10:55:08;13.60;99.90
21149;DHT22;10732;51.472;6.466;2023-03-23T10:57:36;13.10;99.90
21149;DHT22;10732;51.472;6.466;2023-03-23T11:00:06;12.90;99.90
21149;DHT22;10732;51.472;6.466;2023-03-23T11:02:39;12.50;99.90
21149;DHT22;10732;51.472;6.466;2023-03-23T11:07:50;12.60;99.90
21149;DHT22;10732;51.472;6.466;2023-03-23T11:10:37;12.70;99.90
21149;DHT22;10732;51.472;6.466;2023-03-23T11:13:03;12.50;99.90
21149;DHT22;10732;51.472;6.466;2023-03-23T11:15:36;12.50;99.90
21149;DHT22;10732;51.472;6.466;2023-03-23T11:18:25;12.50;99.90
21149;DHT22;10732;51.472;6.466;2023-03-23T11:20:52;12.20;99.90
21149;DHT22;10732;51.472;6.466;2023-03-23T11:23:32;12.20;99.90
21149;DHT22;10732;51.472;6.466;2023-03-23T11:26:19;12.20;99.90
21149;DHT22;10732;51.472;6.466;2023-03-23T11:29:11;12.00;99.90
21149;DHT22;10732;51.472;6.466;2023-03-23T11:31:43;12.10;99.90
21149;DHT22;10732;51.472;6.466;2023-03-23T11:34:14;12.50;99.90
21149;DHT22;10732;51.472;6.466;2023-03-23T11:39:55;14.00;99.90
21149;DHT22;10732;51.472;6.466;2023-03-23T11:42:24;14.10;99.90
21149;DHT22;10732;51.472;6.466;2023-03-23T11:44:54;13.90;99.90
21149;DHT22;10732;51.472;6.466;2023-03-23T11:47:30;13.90;99.90
21149;DHT22;10732;51.472;6.466;2023-03-23T11:50:04;13.80;99.90
21149;DHT22;10732;51.472;6.466;2023-03-23T11:52:52;13.50;99.90
21149;DHT22;10732;51.472;6.466;2023-03-23T11:55:26;13.20;99.90
21149;DHT22;10732;51.472;6.466;2023-03-23T11:57:55;13.20;99.90
21149;DHT22;10732;51.472;6.466;2023-03-23T12:00:25;13.30;99.90
21149;DHT22;10732;51.472;6.466;2023-03-23T12:08:50;13.10;99.90
21149;DHT22;10732;51.472;6.466;2023-03-23T12:11:47;12.90;99.90
21149;DHT22;10732;51.472;6.466;2023-03-23T12:14:50;12.90;99.90
21149;DHT22;10732;51.472;6.466;2023-03-23T12:20:16;13.10;99.90
21149;DHT22;10732;51.472;6.466;2023-03-23T12:22:58;13.10;99.90
21149;DHT22;10732;51.472;6.466;2023-03-23T12:31:40;13.60;99.90
21149;DHT22;10732;51.472;6.466;2023-03-23T12:42:39;13.70;99.90
21149;DHT22;10732;51.472;6.466;2023-03-23T12:47:58;14.30;99.90
21149;DHT22;10732;51.472;6.466;2023-03-23T12:50:42;14.40;99.90
21149;DHT22;10732;51.472;6.466;2023-03-23T12:53:21;14.50;99.90
21149;DHT22;10732;51.472;6.466;2023-03-23T12:56:04;14.70;99.90
21149;DHT22;10732;51.472;6.466;2023-03-23T12:58:38;15.10;99.90
21149;DHT22;10732;51.472;6.466;2023-03-23T13:01:28;14.90;99.90
21149;DHT22;10732;51.472;6.466;2023-03-23T13:04:15;14.70;99.90
21149;DHT22;10732;51.472;6.466;2023-03-23T13:06:45;14.80;99.90
21149;DHT22;10732;51.472;6.466;2023-03-23T13:11:51;14.70;99.90
21149;DHT22;10732;51.472;6.466;2023-03-23T13:14:37;14.80;99.90
21149;DHT22;10732;51.472;6.466;2023-03-23T13:23:07;15.00;99.90
21149;DHT22;10732;51.472;6.466;2023-03-23T13:28:31;14.90;99.90
21149;DHT22;10732;51.472;6.466;2023-03-23T13:31:04;14.80;99.90
21149;DHT22;10732;51.472;6.466;2023-03-23T13:33:37;15.00;99.90
21149;DHT22;10732;51.472;6.466;2023-03-23T13:36:09;15.00;99.90
21149;DHT22;10732;51.472;6.466;2023-03-23T13:38:36;15.20;99.90
21149;DHT22;10732;51.472;6.466;2023-03-23T13:41:11;15.30;99.90
21149;DHT22;10732;51.472;6.466;2023-03-23T13:43:38;15.30;99.90
21149;DHT22;10732;51.472;6.466;2023-03-23T13:46:09;15.50;99.90
21149;DHT22;10732;51.472;6.466;2023-03-23T13:48:48;15.70;99.90
21149;DHT22;10732;51.472;6.466;2023-03-23T13:59:59;14.90;99.90
21149;DHT22;10732;51.472;6.466;2023-03-23T14:02:39;15.00;99.90
21149;DHT22;10732;51.472;6.466;2023-03-23T14:07:57;15.00;99.90
21149;DHT22;10732;51.472;6.466;2023-03-23T14:13:20;15.30;99.90
21149;DHT22;10732;51.472;6.466;2023-03-23T14:18:46;14.90;99.90
21149;DHT22;10732;51.472;6.466;2023-03-23T14:21:21;14.70;99.90
21149;DHT22;10732;51.472;6.466;2023-03-23T14:23:47;14.70;99.90
21149;DHT22;10732;51.472;6.466;2023-03-23T14:26:17;14.50;99.90
21149;DHT22;10732;51.472;6.466;2023-03-23T14:28:45;14.40;99.90
21149;DHT22;10732;51.472;6.466;2023-03-23T14:31:32;14.50;99.90
21149;DHT22;10732;51.472;6.466;2023-03-23T14:34:03;14.50;99.90
21149;DHT22;10732;51.472;6.466;2023-03-23T14:36:31;14.50;99.90
21149;DHT22;10732;51.472;6.466;2023-03-23T14:39:32;14.60;99.90
21149;DHT22;10732;51.472;6.466;2023-03-23T14:42:17;14.60;99.90
21149;DHT22;10732;51.472;6.466;2023-03-23T14:44:48;14.60;99.90
21149;DHT22;10732;51.472;6.466;2023-03-23T14:49:59;14.70;99.90
21149;DHT22;10732;51.472;6.466;2023-03-23T14:52:32;14.70;99.90
21149;DHT22;10732;51.472;6.466;2023-03-23T14:55:14;14.70;99.90
21149;DHT22;10732;51.472;6.466;2023-03-23T14:57:41;14.80;99.90
21149;DHT22;10732;51.472;6.466;2023-03-23T15:00:16;15.10;99.90
21149;DHT22;10732;51.472;6.466;2023-03-23T15:02:45;15.10;99.90
21149;DHT22;10732;51.472;6.466;2023-03-23T15:05:41;14.80;99.90
21149;DHT22;10732;51.472;6.466;2023-03-23T15:08:20;14.90;99.90
21149;DHT22;10732;51.472;6.466;2023-03-23T15:11:01;14.80;99.90
21149;DHT22;10732;51.472;6.466;2023-03-23T15:13:28;14.60;99.90
21149;DHT22;10732;51.472;6.466;2023-03-23T15:16:05;14.60;99.90
21149;DHT22;10732;51.472;6.466;2023-03-23T15:18:37;14.70;99.90
21149;DHT22;10732;51.472;6.466;2023-03-23T15:21:12;14.70;99.90
21149;DHT22;10732;51.472;6.466;2023-03-23T15:23:44;14.60;99.90
21149;DHT22;10732;51.472;6.466;2023-03-23T15:26:28;14.80;99.90
21149;DHT22;10732;51.472;6.466;2023-03-23T15:29:11;14.80;99.90
21149;DHT22;10732;51.472;6.466;2023-03-23T15:31:55;14.80;99.90
21149;DHT22;10732;51.472;6.466;2023-03-23T15:34:27;14.80;99.90
21149;DHT22;10732;51.472;6.466;2023-03-23T15:37:02;14.70;99.90
21149;DHT22;10732;51.472;6.466;2023-03-23T15:39:29;14.70;99.90
21149;DHT22;10732;51.472;6.466;2023-03-23T15:41:56;14.70;99.90
21149;DHT22;10732;51.472;6.466;2023-03-23T15:44:25;14.50;99.90
21149;DHT22;10732;51.472;6.466;2023-03-23T15:46:54;14.40;99.90
21149;DHT22;10732;51.472;6.466;2023-03-23T15:49:27;14.50;99.90
21149;DHT22;10732;51.472;6.466;2023-03-23T15:51:53;14.60;99.90
21149;DHT22;10732;51.472;6.466;2023-03-23T15:54:18;14.50;99.90
21149;DHT22;10732;51.472;6.466;2023-03-23T15:56:44;14.50;99.90
21149;DHT22;10732;51.472;6.466;2023-03-23T15:59:10;14.60;99.90
21149;DHT22;10732;51.472;6.466;2023-03-23T16:01:38;14.60;99.90
21149;DHT22;10732;51.472;6.466;2023-03-23T16:04:07;14.50;99.90
21149;DHT22;10732;51.472;6.466;2023-03-23T16:06:34;14.50;99.90
21149;DHT22;10732;51.472;6.466;2023-03-23T16:09:01;14.50;99.90
21149;DHT22;10732;51.472;6.466;2023-03-23T16:11:28;14.40;99.90
21149;DHT22;10732;51.472;6.466;2023-03-23T16:13:56;14.40;99.90
21149;DHT22;10732;51.472;6.466;2023-03-23T16:16:25;14.40;99.90
21149;DHT22;10732;51.472;6.466;2023-03-23T16:18:52;14.50;99.90
21149;DHT22;10732;51.472;6.466;2023-03-23T16:21:17;14.40;99.90
21149;DHT22;10732;51.472;6.466;2023-03-23T16:23:43;14.40;99.90
21149;DHT22;10732;51.472;6.466;2023-03-23T16:26:11;14.30;99.90
21149;DHT22;10732;51.472;6.466;2023-03-23T16:28:37;14.30;99.90
21149;DHT22;10732;51.472;6.466;2023-03-23T16:31:03;14.40;99.90
21149;DHT22;10732;51.472;6.466;2023-03-23T16:33:28;14.40;99.90
21149;DHT22;10732;51.472;6.466;2023-03-23T16:35:54;14.40;99.90
21149;DHT22;10732;51.472;6.466;2023-03-23T16:38:21;14.50;99.90
21149;DHT22;10732;51.472;6.466;2023-03-23T16:40:47;14.40;99.90
21149;DHT22;10732;51.472;6.466;2023-03-23T16:43:12;14.40;99.90
21149;DHT22;10732;51.472;6.466;2023-03-23T16:45:40;14.30;99.90
21149;DHT22;10732;51.472;6.466;2023-03-23T16:48:07;14.30;99.90
21149;DHT22;10732;51.472;6.466;2023-03-23T16:50:34;14.20;99.90
21149;DHT22;10732;51.472;6.466;2023-03-23T16:53:01;14.10;99.90
21149;DHT22;10732;51.472;6.466;2023-03-23T16:55:26;14.00;99.90
21149;DHT22;10732;51.472;6.466;2023-03-23T16:57:53;13.90;99.90
21149;DHT22;10732;51.472;6.466;2023-03-23T17:00:19;14.00;99.90
21149;DHT22;10732;51.472;6.466;2023-03-23T17:02:49;14.00;99.90
21149;DHT22;10732;51.472;6.466;2023-03-23T17:05:17;14.00;99.90
21149;DHT22;10732;51.472;6.466;2023-03-23T17:07:44;14.00;99.90
21149;DHT22;10732;51.472;6.466;2023-03-23T17:10:10;14.00;99.90
21149;DHT22;10732;51.472;6.466;2023-03-23T17:12:36;14.00;99.90
21149;DHT22;10732;51.472;6.466;2023-03-23T17:15:03;14.00;99.90
21149;DHT22;10732;51.472;6.466;2023-03-23T17:17:28;13.90;99.90
21149;DHT22;10732;51.472;6.466;2023-03-23T17:19:54;13.90;99.90
21149;DHT22;10732;51.472;6.466;2023-03-23T17:22:21;13.90;99.90
21149;DHT22;10732;51.472;6.466;2023-03-23T17:24:46;13.90;99.90
21149;DHT22;10732;51.472;6.466;2023-03-23T17:27:14;13.80;99.90